Time;durP1;ratioP1;P1;durP2;ratioP2;P2;SDS_P1;SDS_P2;PMS_P1;PMS_P2;Temp;Humidity;BMP_temperature;BMP_pressure;BME280_temperature;BME280_humidity;BME280_pressure;Samples;Min_cycle;Max_cycle;Signal;HPM_P1;HPM_P2
2023/03/20 00:00:49;;;;;;;;;;;;;;;;;;5072077;28;20000;-80
2023/03/20 00:03:15;;;;;;;;;;;;;;;;;;5071602;28;20278;-79
2023/03/20 00:05:40;;;;;;;;;;;;;;;;;;5071812;28;19924;-79
2023/03/20 00:08:08;;;;;;;;;;;;;;;;;;5072713;28;19924;-79
2023/03/20 00:10:34;;;;;;;;;;;;;;;;;;5070429;28;20039;-79
2023/03/20 00:13:01;;;;;;;;;;;;;;;;;;5072324;28;20010;-78
2023/03/20 00:15:27;;;;;;;;;;;;;;;;;;5071634;28;20458;-79
2023/03/20 00:17:53;;;;;;;;;;;;;;;;;;5072474;28;19924;-78
2023/03/20 00:20:19;;;;;;;;;;;;;;;;;;5036308;28;19924;-76
2023/03/20 00:22:46;;;;;;;;;;;;;;;;;;5072439;28;19933;-78
2023/03/20 00:25:11;;;;;;;;;;;;;;;;;;5069843;28;20144;-84
2023/03/20 00:27:37;;;;;;;;;;;;;;;;;;5072198;28;20011;-79
2023/03/20 00:30:03;;;;;;;;;;;;;;;;;;5072151;28;19970;-79
2023/03/20 00:32:29;;;;;;;;;;;;;;;;;;5071684;28;19928;-79
2023/03/20 00:34:55;;;;;;;;;;;;;;;;;;5053969;28;19964;-80
2023/03/20 00:37:21;;;;;;;;;;;;;;;;;;5071505;28;19924;-81
2023/03/20 00:39:47;;;;;;;;;;;;;;;;;;5067625;28;19970;-80
2023/03/20 00:42:13;;;;;;;;;;;;;;;;;;5071183;28;19925;-84
2023/03/20 00:44:39;;;;;;;;;;;;;;;;;;5070913;28;19924;-80
2023/03/20 00:47:05;;;;;;;;;;;;;;;;;;5071437;28;20413;-80
2023/03/20 00:49:31;;;;;;;;;;;;;;;;;;5070613;28;19925;-79
2023/03/20 00:51:57;;;;;;;;;;;;;;;;;;5071781;28;20376;-81
2023/03/20 00:54:23;;;;;;;;;;;;;;;;;;5069072;28;19924;-80
2023/03/20 00:56:49;;;;;;;;;;;;;;;;;;5053614;28;19931;-81
2023/03/20 00:59:15;;;;;;;;;;;;;;;;;;5071319;28;19925;-84
2023/03/20 01:01:41;;;;;;;;;;;;;;;;;;5069847;28;19928;-81
2023/03/20 01:04:07;;;;;;;;;;;;;;;;;;5070977;28;19928;-79
2023/03/20 01:06:33;;;;;;;;;;;;;;;;;;5065937;28;19934;-80
2023/03/20 01:08:59;;;;;;;;;;;;;;;;;;5067971;28;19928;-79
2023/03/20 01:11:25;;;;;;;;;;;;;;;;;;5070826;28;20435;-81
2023/03/20 01:13:51;;;;;;;;;;;;;;;;;;5071276;28;20007;-81
2023/03/20 01:16:17;;;;;;;;;;;;;;;;;;5066018;28;19925;-84
2023/03/20 01:18:43;;;;;;;;;;;;;;;;;;5065747;28;19978;-82
2023/03/20 01:21:09;;;;;;;;;;;;;;;;;;5069199;28;19924;-82
2023/03/20 01:23:35;;;;;;;;;;;;;;;;;;5068821;28;19940;-83
2023/03/20 01:26:01;;;;;;;;;;;;;;;;;;5055225;28;19932;-81
2023/03/20 01:28:27;;;;;;;;;;;;;;;;;;5079065;28;19932;-81
2023/03/20 01:30:52;;;;;;;;;;;;;;;;;;5071009;28;19979;-81
2023/03/20 01:33:18;;;;;;;;;;;;;;;;;;5070807;28;19932;-85
2023/03/20 01:35:44;;;;;;;;;;;;;;;;;;5052332;28;19930;-78
2023/03/20 01:38:10;;;;;;;;;;;;;;;;;;5053417;28;20369;-79
2023/03/20 01:40:36;;;;;;;;;;;;;;;;;;5047964;28;19979;-81
2023/03/20 01:43:02;;;;;;;;;;;;;;;;;;5071047;28;19959;-79
2023/03/20 01:45:28;;;;;;;;;;;;;;;;;;5070386;28;19925;-79
2023/03/20 01:47:54;;;;;;;;;;;;;;;;;;5070515;28;20289;-80
2023/03/20 01:50:25;;;;;;;;;;;;;;;;;;5052076;28;19925;-82
2023/03/20 01:52:51;;;;;;;;;;;;;;;;;;5070032;28;19924;-81
2023/03/20 01:55:17;;;;;;;;;;;;;;;;;;5068525;28;19925;-80
2023/03/20 01:57:42;;;;;;;;;;;;;;;;;;5070300;28;20176;-79
2023/03/20 02:00:10;;;;;;;;;;;;;;;;;;5038281;28;19925;-78
2023/03/20 02:02:36;;;;;;;;;;;;;;;;;;5069099;28;20011;-79
2023/03/20 02:05:03;;;;;;;;;;;;;;;;;;5064824;28;20070;-78
2023/03/20 02:07:29;;;;;;;;;;;;;;;;;;5058920;28;19932;-78
2023/03/20 02:09:54;;;;;;;;;;;;;;;;;;5067437;28;19925;-79
2023/03/20 02:12:20;;;;;;;;;;;;;;;;;;5053124;28;20370;-79
2023/03/20 02:14:46;;;;;;;;;;;;;;;;;;5052357;28;19929;-77
2023/03/20 02:17:12;;;;;;;;;;;;;;;;;;5036172;28;19935;-79
2023/03/20 02:19:39;;;;;;;;;;;;;;;;;;5073379;28;19929;-79
2023/03/20 02:22:04;;;;;;;;;;;;;;;;;;5071982;28;19932;-78
2023/03/20 02:24:30;;;;;;;;;;;;;;;;;;5071301;28;19924;-78
2023/03/20 02:26:56;;;;;;;;;;;;;;;;;;5072614;28;19924;-78
2023/03/20 02:29:22;;;;;;;;;;;;;;;;;;5072991;28;20309;-76
2023/03/20 02:31:48;;;;;;;;;;;;;;;;;;5073830;28;19924;-80
2023/03/20 02:34:16;;;;;;;;;;;;;;;;;;5073860;28;19970;-79
2023/03/20 02:36:42;;;;;;;;;;;;;;;;;;5073843;28;19933;-78
2023/03/20 02:39:08;;;;;;;;;;;;;;;;;;5072444;28;20279;-78
2023/03/20 02:41:34;;;;;;;;;;;;;;;;;;5056099;28;19928;-79
2023/03/20 02:44:00;;;;;;;;;;;;;;;;;;5053970;28;19936;-80
2023/03/20 02:46:26;;;;;;;;;;;;;;;;;;5073939;28;20001;-84
2023/03/20 02:48:52;;;;;;;;;;;;;;;;;;5055870;28;20557;-79
2023/03/20 02:51:18;;;;;;;;;;;;;;;;;;5073902;28;19928;-78
2023/03/20 02:53:44;;;;;;;;;;;;;;;;;;5037378;28;19929;-78
2023/03/20 02:56:10;;;;;;;;;;;;;;;;;;5073603;28;19950;-81
2023/03/20 02:58:36;;;;;;;;;;;;;;;;;;5073754;28;19928;-78
2023/03/20 03:01:02;;;;;;;;;;;;;;;;;;5073808;28;19983;-78
2023/03/20 03:03:28;;;;;;;;;;;;;;;;;;5073304;28;20023;-81
2023/03/20 03:05:54;;;;;;;;;;;;;;;;;;5073836;28;19964;-78
2023/03/20 03:08:21;;;;;;;;;;;;;;;;;;5054960;28;20294;-79
2023/03/20 03:10:47;;;;;;;;;;;;;;;;;;5051924;28;20653;-79
2023/03/20 03:13:14;;;;;;;;;;;;;;;;;;5062819;28;19924;-79
2023/03/20 03:15:40;;;;;;;;;;;;;;;;;;5073376;28;19931;-78
2023/03/20 03:18:06;;;;;;;;;;;;;;;;;;5068997;28;20325;-77
2023/03/20 03:20:32;;;;;;;;;;;;;;;;;;5052871;28;19929;-78
2023/03/20 03:22:58;;;;;;;;;;;;;;;;;;5052680;28;19925;-78
2023/03/20 03:25:24;;;;;;;;;;;;;;;;;;5051282;28;19960;-78
2023/03/20 03:27:49;;;;;;;;;;;;;;;;;;5071527;28;19933;-78
2023/03/20 03:30:15;;;;;;;;;;;;;;;;;;5063946;28;19929;-78
2023/03/20 03:32:41;;;;;;;;;;;;;;;;;;5054841;28;20374;-80
2023/03/20 03:35:07;;;;;;;;;;;;;;;;;;5072891;28;19970;-78
2023/03/20 03:37:33;;;;;;;;;;;;;;;;;;5052686;28;19925;-80
2023/03/20 03:39:59;;;;;;;;;;;;;;;;;;5071846;28;19977;-78
2023/03/20 03:42:26;;;;;;;;;;;;;;;;;;5060730;28;20298;-78
2023/03/20 03:44:52;;;;;;;;;;;;;;;;;;5052837;28;20251;-78
2023/03/20 03:47:18;;;;;;;;;;;;;;;;;;5042124;28;20077;-79
2023/03/20 03:49:44;;;;;;;;;;;;;;;;;;5064890;28;19949;-78
2023/03/20 03:52:10;;;;;;;;;;;;;;;;;;5036120;28;20017;-79
2023/03/20 03:54:36;;;;;;;;;;;;;;;;;;5060215;28;19935;-78
2023/03/20 03:57:02;;;;;;;;;;;;;;;;;;5072934;28;19932;-79
2023/03/20 03:59:28;;;;;;;;;;;;;;;;;;5073100;28;20406;-77
2023/03/20 04:01:54;;;;;;;;;;;;;;;;;;5072673;28;20110;-78
2023/03/20 04:04:20;;;;;;;;;;;;;;;;;;5072534;28;19932;-77
2023/03/20 04:06:46;;;;;;;;;;;;;;;;;;5072428;28;19975;-78
2023/03/20 04:09:12;;;;;;;;;;;;;;;;;;5069290;28;20272;-78
2023/03/20 04:11:38;;;;;;;;;;;;;;;;;;5068443;28;19936;-80
2023/03/20 04:14:05;;;;;;;;;;;;;;;;;;5052764;28;19929;-78
2023/03/20 04:16:31;;;;;;;;;;;;;;;;;;5052725;28;19955;-78
2023/03/20 04:18:57;;;;;;;;;;;;;;;;;;5051870;28;19925;-78
2023/03/20 04:21:23;;;;;;;;;;;;;;;;;;5056158;28;19925;-78
2023/03/20 04:23:49;;;;;;;;;;;;;;;;;;5070115;28;19930;-80
2023/03/20 04:26:15;;;;;;;;;;;;;;;;;;5072593;28;19947;-78
2023/03/20 04:28:41;;;;;;;;;;;;;;;;;;5044169;28;19996;-78
2023/03/20 04:31:07;;;;;;;;;;;;;;;;;;5052639;28;20386;-78
2023/03/20 04:33:33;;;;;;;;;;;;;;;;;;5060698;28;19985;-82
2023/03/20 04:35:59;;;;;;;;;;;;;;;;;;5051817;28;20011;-78
2023/03/20 04:38:25;;;;;;;;;;;;;;;;;;5063476;28;19931;-79
2023/03/20 04:40:51;;;;;;;;;;;;;;;;;;5070167;28;19924;-78
2023/03/20 04:43:17;;;;;;;;;;;;;;;;;;5072573;28;19932;-77
2023/03/20 04:45:43;;;;;;;;;;;;;;;;;;5071605;28;19924;-78
2023/03/20 04:48:09;;;;;;;;;;;;;;;;;;5072278;28;20289;-78
2023/03/20 04:50:35;;;;;;;;;;;;;;;;;;5071729;28;19931;-78
2023/03/20 04:53:01;;;;;;;;;;;;;;;;;;5069885;28;20809;-76
2023/03/20 04:55:27;;;;;;;;;;;;;;;;;;5058542;28;19932;-78
2023/03/20 04:57:53;;;;;;;;;;;;;;;;;;5051339;28;20366;-78
2023/03/20 05:00:20;;;;;;;;;;;;;;;;;;5051875;28;19925;-79
2023/03/20 05:02:46;;;;;;;;;;;;;;;;;;5051453;28;19925;-78
2023/03/20 05:05:11;;;;;;;;;;;;;;;;;;5068473;28;19931;-78
2023/03/20 05:07:37;;;;;;;;;;;;;;;;;;5071744;28;20361;-78
2023/03/20 05:10:04;;;;;;;;;;;;;;;;;;5061756;28;20292;-79
2023/03/20 05:12:30;;;;;;;;;;;;;;;;;;5060087;28;19948;-78
2023/03/20 05:14:56;;;;;;;;;;;;;;;;;;5070831;28;20373;-78
2023/03/20 05:17:22;;;;;;;;;;;;;;;;;;5071149;28;19935;-77
2023/03/20 05:19:48;;;;;;;;;;;;;;;;;;5052835;28;19947;-78
2023/03/20 05:22:14;;;;;;;;;;;;;;;;;;5053555;28;20440;-77
2023/03/20 05:24:40;;;;;;;;;;;;;;;;;;5069360;28;19932;-81
2023/03/20 05:27:06;;;;;;;;;;;;;;;;;;5053190;28;20373;-78
2023/03/20 05:29:32;;;;;;;;;;;;;;;;;;5071402;28;19933;-80
2023/03/20 05:31:58;;;;;;;;;;;;;;;;;;5068526;28;19932;-77
2023/03/20 05:34:24;;;;;;;;;;;;;;;;;;5070891;28;19936;-78
2023/03/20 05:36:50;;;;;;;;;;;;;;;;;;5070803;28;19928;-79
2023/03/20 05:39:16;;;;;;;;;;;;;;;;;;5068353;28;19961;-80
2023/03/20 05:41:42;;;;;;;;;;;;;;;;;;5071206;28;20020;-79
2023/03/20 05:44:08;;;;;;;;;;;;;;;;;;5070131;28;19935;-80
2023/03/20 05:46:34;;;;;;;;;;;;;;;;;;5070585;28;19928;-79
2023/03/20 05:49:00;;;;;;;;;;;;;;;;;;5055379;28;19935;-79
2023/03/20 05:51:26;;;;;;;;;;;;;;;;;;5050908;28;19974;-79
2023/03/20 05:53:52;;;;;;;;;;;;;;;;;;5061931;28;19936;-78
2023/03/20 05:56:18;;;;;;;;;;;;;;;;;;5053252;28;19928;-78
2023/03/20 05:58:44;;;;;;;;;;;;;;;;;;5058062;28;19935;-78
2023/03/20 06:01:10;;;;;;;;;;;;;;;;;;5050729;28;19929;-78
2023/03/20 06:03:36;;;;;;;;;;;;;;;;;;5054574;28;19928;-82
2023/03/20 06:06:02;;;;;;;;;;;;;;;;;;5063194;28;19939;-77
2023/03/20 06:08:29;;;;;;;;;;;;;;;;;;5050049;28;19936;-78
2023/03/20 06:10:55;;;;;;;;;;;;;;;;;;5049526;28;19924;-78
2023/03/20 06:13:21;;;;;;;;;;;;;;;;;;5050960;28;19925;-77
2023/03/20 06:15:47;;;;;;;;;;;;;;;;;;5050047;28;19925;-78
2023/03/20 06:18:13;;;;;;;;;;;;;;;;;;5054282;28;20015;-78
2023/03/20 06:20:39;;;;;;;;;;;;;;;;;;5057962;28;19952;-78
2023/03/20 06:23:05;;;;;;;;;;;;;;;;;;5054032;28;19925;-81
2023/03/20 06:25:31;;;;;;;;;;;;;;;;;;5031214;28;19950;-79
2023/03/20 06:27:57;;;;;;;;;;;;;;;;;;5049046;28;19925;-78
2023/03/20 06:30:23;;;;;;;;;;;;;;;;;;5050895;28;20247;-78
2023/03/20 06:32:49;;;;;;;;;;;;;;;;;;5049936;28;20019;-78
2023/03/20 06:35:16;;;;;;;;;;;;;;;;;;5050037;28;19932;-79
2023/03/20 06:37:42;;;;;;;;;;;;;;;;;;5050381;28;20674;-78
2023/03/20 06:40:09;;;;;;;;;;;;;;;;;;5061497;28;19932;-75
2023/03/20 06:42:35;;;;;;;;;;;;;;;;;;5070752;28;19935;-78
2023/03/20 06:45:01;;;;;;;;;;;;;;;;;;5052225;28;20003;-77
2023/03/20 06:47:27;;;;;;;;;;;;;;;;;;5059842;28;20370;-78
2023/03/20 06:49:52;;;;;;;;;;;;;;;;;;5050074;28;20313;-84
2023/03/20 06:52:20;;;;;;;;;;;;;;;;;;5059873;28;19929;-78
2023/03/20 06:54:46;;;;;;;;;;;;;;;;;;5068588;28;19946;-80
2023/03/20 06:57:12;;;;;;;;;;;;;;;;;;5067677;28;20365;-81
2023/03/20 06:59:38;;;;;;;;;;;;;;;;;;5060149;28;20331;-80
2023/03/20 07:02:04;;;;;;;;;;;;;;;;;;5070161;28;19947;-79
2023/03/20 07:04:30;;;;;;;;;;;;;;;;;;5055302;28;19928;-78
2023/03/20 07:06:57;;;;;;;;;;;;;;;;;;5040080;28;19932;-83
2023/03/20 07:09:23;;;;;;;;;;;;;;;;;;5052240;28;19929;-77
2023/03/20 07:11:49;;;;;;;;;;;;;;;;;;5068965;28;20392;-65
2023/03/20 07:14:15;;;;;;;;;;;;;;;;;;5072963;28;19931;-67
2023/03/20 07:16:41;;;;;;;;;;;;;;;;;;5073924;28;20289;-68
2023/03/20 07:19:07;;;;;;;;;;;;;;;;;;5072881;28;19924;-65
2023/03/20 07:21:33;;;;;;;;;;;;;;;;;;5071219;28;19928;-74
2023/03/20 07:24:00;;;;;;;;;;;;;;;;;;5051146;28;19979;-85
2023/03/20 07:26:26;;;;;;;;;;;;;;;;;;5036176;28;19936;-79
2023/03/20 07:28:51;;;;;;;;;;;;;;;;;;5057070;28;19928;-69
2023/03/20 07:31:17;;;;;;;;;;;;;;;;;;5073248;28;19997;-70
2023/03/20 07:33:43;;;;;;;;;;;;;;;;;;5055519;28;19928;-64
2023/03/20 07:36:09;;;;;;;;;;;;;;;;;;5073031;28;19928;-78
2023/03/20 07:38:35;;;;;;;;;;;;;;;;;;5053453;28;19928;-80
2023/03/20 07:41:01;;;;;;;;;;;;;;;;;;5072444;28;19947;-86
2023/03/20 07:43:27;;;;;;;;;;;;;;;;;;5071440;28;20015;-79
2023/03/20 07:45:53;;;;;;;;;;;;;;;;;;5055796;28;19932;-77
2023/03/20 07:48:19;;;;;;;;;;;;;;;;;;5062843;28;19928;-79
2023/03/20 07:50:45;;;;;;;;;;;;;;;;;;5053031;28;19980;-79
2023/03/20 07:53:11;;;;;;;;;;;;;;;;;;5052727;28;19987;-78
2023/03/20 07:55:37;;;;;;;;;;;;;;;;;;5070528;28;20381;-79
2023/03/20 07:58:03;;;;;;;;;;;;;;;;;;5070991;28;19994;-85
2023/03/20 08:00:30;;;;;;;;;;;;;;;;;;5073234;28;19979;-79
2023/03/20 08:02:56;;;;;;;;;;;;;;;;;;5072005;28;22205;-79
2023/03/20 08:05:22;;;;;;;;;;;;;;;;;;5054057;28;20951;-80
2023/03/20 08:07:48;;;;;;;;;;;;;;;;;;5073013;28;19931;-79
2023/03/20 08:10:14;;;;;;;;;;;;;;;;;;5063008;28;19948;-79
2023/03/20 08:12:40;;;;;;;;;;;;;;;;;;5035340;28;19933;-80
2023/03/20 08:15:06;;;;;;;;;;;;;;;;;;5052021;28;19951;-85
2023/03/20 08:17:32;;;;;;;;;;;;;;;;;;5052523;28;20345;-78
2023/03/20 08:19:58;;;;;;;;;;;;;;;;;;5071886;28;19926;-80
2023/03/20 08:22:24;;;;;;;;;;;;;;;;;;5071638;28;19969;-79
2023/03/20 08:24:50;;;;;;;;;;;;;;;;;;5068590;28;20014;-79
2023/03/20 08:27:16;;;;;;;;;;;;;;;;;;5072126;28;19925;-77
2023/03/20 08:29:42;;;;;;;;;;;;;;;;;;5072605;28;19929;-80
2023/03/20 08:32:08;;;;;;;;;;;;;;;;;;5069966;28;19951;-81
2023/03/20 08:34:34;;;;;;;;;;;;;;;;;;5068623;28;19924;-75
2023/03/20 08:37:00;;;;;;;;;;;;;;;;;;5071745;28;19925;-77
2023/03/20 08:39:26;;;;;;;;;;;;;;;;;;5068979;28;19925;-77
2023/03/20 08:41:52;;;;;;;;;;;;;;;;;;5072328;28;19967;-78
2023/03/20 08:44:18;;;;;;;;;;;;;;;;;;5070090;28;20381;-78
2023/03/20 08:46:45;;;;;;;;;;;;;;;;;;5051410;28;19925;-78
2023/03/20 08:49:11;;;;;;;;;;;;;;;;;;5069653;28;20377;-81
2023/03/20 08:51:37;;;;;;;;;;;;;;;;;;5054085;28;19977;-78
2023/03/20 08:54:03;;;;;;;;;;;;;;;;;;5068200;28;20387;-77
2023/03/20 08:56:29;;;;;;;;;;;;;;;;;;5063948;28;20289;-77
2023/03/20 08:58:55;;;;;;;;;;;;;;;;;;5051908;28;20007;-77
2023/03/20 09:01:21;;;;;;;;;;;;;;;;;;5070813;28;20008;-77
2023/03/20 09:03:47;;;;;;;;;;;;;;;;;;5069943;28;19924;-77
2023/03/20 09:06:13;;;;;;;;;;;;;;;;;;5069458;28;19928;-80
2023/03/20 09:08:39;;;;;;;;;;;;;;;;;;5043801;28;19933;-81
2023/03/20 09:11:05;;;;;;;;;;;;;;;;;;5040399;28;20420;-77
2023/03/20 09:13:31;;;;;;;;;;;;;;;;;;5044938;28;19925;-78
2023/03/20 09:15:57;;;;;;;;;;;;;;;;;;5060016;28;19924;-79
2023/03/20 09:18:23;;;;;;;;;;;;;;;;;;5068773;28;19939;-76
2023/03/20 09:20:49;;;;;;;;;;;;;;;;;;5052788;28;19981;-74
2023/03/20 09:23:15;;;;;;;;;;;;;;;;;;5068912;28;20301;-75
2023/03/20 09:25:41;;;;;;;;;;;;;;;;;;5046413;28;19931;-73
2023/03/20 09:28:07;;;;;;;;;;;;;;;;;;5068713;28;19924;-76
2023/03/20 09:30:33;;;;;;;;;;;;;;;;;;5070872;28;19932;-75
2023/03/20 09:32:59;;;;;;;;;;;;;;;;;;5071084;28;19975;-75
2023/03/20 09:35:25;;;;;;;;;;;;;;;;;;5070199;28;19924;-75
2023/03/20 09:37:51;;;;;;;;;;;;;;;;;;5071341;28;19932;-74
2023/03/20 09:40:17;;;;;;;;;;;;;;;;;;5069294;28;19954;-77
2023/03/20 09:42:43;;;;;;;;;;;;;;;;;;5071237;28;19931;-74
2023/03/20 09:45:09;;;;;;;;;;;;;;;;;;5070991;28;19970;-77
2023/03/20 09:47:35;;;;;;;;;;;;;;;;;;5069253;28;20642;-74
2023/03/20 09:50:01;;;;;;;;;;;;;;;;;;5068697;28;19937;-74
2023/03/20 09:52:27;;;;;;;;;;;;;;;;;;5070318;28;19925;-77
2023/03/20 09:54:53;;;;;;;;;;;;;;;;;;5051148;28;19928;-72
2023/03/20 09:57:19;;;;;;;;;;;;;;;;;;5070269;28;20008;-77
2023/03/20 09:59:45;;;;;;;;;;;;;;;;;;5070302;28;20435;-74
2023/03/20 10:02:11;;;;;;;;;;;;;;;;;;5069972;28;19964;-73
2023/03/20 10:04:37;;;;;;;;;;;;;;;;;;5069878;28;20839;-74
2023/03/20 10:07:04;;;;;;;;;;;;;;;;;;5070858;28;19978;-72
2023/03/20 10:09:33;;;;;;;;;;;;;;;;;;5068680;28;19928;-74
2023/03/20 10:11:59;;;;;;;;;;;;;;;;;;5070796;28;19932;-72
2023/03/20 10:14:25;;;;;;;;;;;;;;;;;;5067961;28;20370;-74
2023/03/20 10:16:51;;;;;;;;;;;;;;;;;;5052808;28;20003;-74
2023/03/20 10:19:17;;;;;;;;;;;;;;;;;;5070171;28;19924;-72
2023/03/20 10:21:43;;;;;;;;;;;;;;;;;;5052068;28;20388;-73
2023/03/20 10:24:10;;;;;;;;;;;;;;;;;;5068795;28;19924;-72
2023/03/20 10:26:36;;;;;;;;;;;;;;;;;;5070138;28;19924;-73
2023/03/20 10:29:02;;;;;;;;;;;;;;;;;;5070655;28;19925;-74
2023/03/20 10:31:28;;;;;;;;;;;;;;;;;;5052294;28;19925;-73
2023/03/20 10:33:54;;;;;;;;;;;;;;;;;;5068741;28;20029;-72
2023/03/20 10:36:20;;;;;;;;;;;;;;;;;;5070816;28;19932;-73
2023/03/20 10:38:46;;;;;;;;;;;;;;;;;;5059890;28;19935;-73
2023/03/20 10:41:13;;;;;;;;;;;;;;;;;;5056615;28;20032;-72
2023/03/20 10:43:40;;;;;;;;;;;;;;;;;;5054008;28;19929;-74
2023/03/20 10:46:08;;;;;;;;;;;;;;;;;;5054186;28;19974;-72
2023/03/20 10:48:34;;;;;;;;;;;;;;;;;;5052876;28;19929;-76
2023/03/20 10:51:00;;;;;;;;;;;;;;;;;;5055767;28;19934;-71
2023/03/20 10:53:26;;;;;;;;;;;;;;;;;;5071362;28;19931;-74
2023/03/20 10:55:52;;;;;;;;;;;;;;;;;;5071080;28;19928;-72
2023/03/20 10:58:18;;;;;;;;;;;;;;;;;;5074229;28;19925;-74
2023/03/20 11:00:44;;;;;;;;;;;;;;;;;;5073526;28;19935;-74
2023/03/20 11:03:10;;;;;;;;;;;;;;;;;;5056615;28;19925;-75
2023/03/20 11:05:37;;;;;;;;;;;;;;;;;;5073163;28;19979;-75
2023/03/20 11:08:02;;;;;;;;;;;;;;;;;;5073978;28;19928;-73
2023/03/20 11:10:28;;;;;;;;;;;;;;;;;;5071078;28;19931;-73
2023/03/20 11:12:54;;;;;;;;;;;;;;;;;;5070082;28;19924;-73
2023/03/20 11:15:20;;;;;;;;;;;;;;;;;;5071136;28;20365;-77
2023/03/20 11:17:46;;;;;;;;;;;;;;;;;;5068147;28;19924;-77
2023/03/20 11:20:12;;;;;;;;;;;;;;;;;;5055633;28;20389;-77
2023/03/20 11:22:38;;;;;;;;;;;;;;;;;;5072920;28;19933;-77
2023/03/20 11:25:04;;;;;;;;;;;;;;;;;;5056904;28;19935;-77
2023/03/20 11:27:30;;;;;;;;;;;;;;;;;;5078298;28;20374;-75
2023/03/20 11:29:56;;;;;;;;;;;;;;;;;;5072943;28;19924;-76
2023/03/20 11:32:22;;;;;;;;;;;;;;;;;;5073736;28;19935;-77
2023/03/20 11:34:48;;;;;;;;;;;;;;;;;;5067456;28;20336;-73
2023/03/20 11:37:14;;;;;;;;;;;;;;;;;;5063907;28;19987;-76
2023/03/20 11:39:41;;;;;;;;;;;;;;;;;;5062407;28;19970;-77
2023/03/20 11:42:06;;;;;;;;;;;;;;;;;;5072033;28;19993;-75
2023/03/20 11:44:33;;;;;;;;;;;;;;;;;;5053308;28;20627;-77
2023/03/20 11:46:59;;;;;;;;;;;;;;;;;;5071851;28;19931;-75
2023/03/20 11:49:26;;;;;;;;;;;;;;;;;;5071145;28;19986;-76
2023/03/20 11:51:52;;;;;;;;;;;;;;;;;;5071881;28;19928;-77
2023/03/20 11:54:18;;;;;;;;;;;;;;;;;;5051673;28;19928;-77
2023/03/20 11:56:44;;;;;;;;;;;;;;;;;;5070331;28;19928;-77
2023/03/20 11:59:13;;;;;;;;;;;;;;;;;;5068864;28;19941;-75
2023/03/20 12:01:43;;;;;;;;;;;;;;;;;;5051441;28;19928;-76
2023/03/20 12:04:10;;;;;;;;;;;;;;;;;;5049093;28;20428;-77
2023/03/20 12:06:36;;;;;;;;;;;;;;;;;;5072341;28;20057;-77
2023/03/20 12:09:01;;;;;;;;;;;;;;;;;;5070506;28;20019;-77
2023/03/20 12:11:27;;;;;;;;;;;;;;;;;;5072636;28;19931;-76
2023/03/20 12:13:53;;;;;;;;;;;;;;;;;;5072186;28;19931;-77
2023/03/20 12:16:19;;;;;;;;;;;;;;;;;;5071631;28;19924;-76
2023/03/20 12:18:45;;;;;;;;;;;;;;;;;;5068038;28;19928;-77
2023/03/20 12:21:11;;;;;;;;;;;;;;;;;;5050539;28;20358;-76
2023/03/20 12:23:37;;;;;;;;;;;;;;;;;;5060723;28;20698;-79
2023/03/20 12:26:03;;;;;;;;;;;;;;;;;;5065841;28;19925;-76
2023/03/20 12:28:29;;;;;;;;;;;;;;;;;;5051562;28;19929;-80
2023/03/20 12:30:55;;;;;;;;;;;;;;;;;;5064099;28;19924;-78
2023/03/20 12:33:21;;;;;;;;;;;;;;;;;;5069104;28;19932;-80
2023/03/20 12:35:47;;;;;;;;;;;;;;;;;;5070603;28;20282;-77
2023/03/20 12:38:13;;;;;;;;;;;;;;;;;;5071068;28;19940;-77
2023/03/20 12:40:39;;;;;;;;;;;;;;;;;;5068860;28;20296;-80
2023/03/20 12:43:05;;;;;;;;;;;;;;;;;;5069186;28;19939;-78
2023/03/20 12:45:32;;;;;;;;;;;;;;;;;;5058999;28;19936;-77
2023/03/20 12:47:58;;;;;;;;;;;;;;;;;;5056042;28;19924;-77
2023/03/20 12:50:24;;;;;;;;;;;;;;;;;;5057478;28;19932;-77
2023/03/20 12:52:50;;;;;;;;;;;;;;;;;;5063696;28;19925;-77
2023/03/20 12:55:16;;;;;;;;;;;;;;;;;;5068347;28;19924;-75
2023/03/20 12:57:42;;;;;;;;;;;;;;;;;;5069349;28;20481;-77
2023/03/20 13:00:09;;;;;;;;;;;;;;;;;;5070378;28;19933;-79
2023/03/20 13:02:35;;;;;;;;;;;;;;;;;;5069343;28;19935;-83
2023/03/20 13:05:01;;;;;;;;;;;;;;;;;;5049939;28;20369;-79
2023/03/20 13:07:27;;;;;;;;;;;;;;;;;;5048950;28;19928;-78
2023/03/20 13:09:53;;;;;;;;;;;;;;;;;;5047704;28;19940;-78
2023/03/20 13:12:19;;;;;;;;;;;;;;;;;;5048887;28;19979;-78
2023/03/20 13:14:45;;;;;;;;;;;;;;;;;;5067659;28;19995;-77
2023/03/20 13:17:11;;;;;;;;;;;;;;;;;;5069136;28;19935;-77
2023/03/20 13:19:37;;;;;;;;;;;;;;;;;;5065173;28;19932;-81
2023/03/20 13:22:02;;;;;;;;;;;;;;;;;;5051727;28;19940;-78
2023/03/20 13:24:28;;;;;;;;;;;;;;;;;;5066940;28;20330;-78
2023/03/20 13:26:54;;;;;;;;;;;;;;;;;;5066727;28;19981;-77
2023/03/20 13:29:20;;;;;;;;;;;;;;;;;;5066791;28;20365;-77
2023/03/20 13:31:46;;;;;;;;;;;;;;;;;;5063216;28;20566;-77
2023/03/20 13:34:12;;;;;;;;;;;;;;;;;;5058222;28;19932;-78
2023/03/20 13:36:38;;;;;;;;;;;;;;;;;;5062059;28;19959;-81
2023/03/20 13:39:04;;;;;;;;;;;;;;;;;;5040907;28;19986;-77
2023/03/20 13:41:30;;;;;;;;;;;;;;;;;;5066361;28;19928;-79
2023/03/20 13:43:57;;;;;;;;;;;;;;;;;;5062100;28;20688;-79
2023/03/20 13:46:23;;;;;;;;;;;;;;;;;;5058997;28;19936;-77
2023/03/20 13:48:49;;;;;;;;;;;;;;;;;;5047377;28;20289;-77
2023/03/20 13:51:15;;;;;;;;;;;;;;;;;;5063953;28;20423;-76
2023/03/20 13:53:41;;;;;;;;;;;;;;;;;;5062721;28;20108;-79
2023/03/20 13:56:07;;;;;;;;;;;;;;;;;;5059548;28;19931;-76
2023/03/20 13:58:33;;;;;;;;;;;;;;;;;;5061812;28;20062;-77
2023/03/20 14:00:59;;;;;;;;;;;;;;;;;;5067652;28;19932;-77
2023/03/20 14:03:26;;;;;;;;;;;;;;;;;;5067378;28;20403;-77
2023/03/20 14:05:52;;;;;;;;;;;;;;;;;;5063869;28;20539;-76
2023/03/20 14:08:18;;;;;;;;;;;;;;;;;;5067752;28;19929;-78
2023/03/20 14:10:44;;;;;;;;;;;;;;;;;;5067072;28;19935;-76
2023/03/20 14:13:10;;;;;;;;;;;;;;;;;;5068705;28;20396;-77
2023/03/20 14:15:36;;;;;;;;;;;;;;;;;;5071980;28;20010;-78
2023/03/20 14:18:02;;;;;;;;;;;;;;;;;;5071143;28;21542;-77
2023/03/20 14:20:28;;;;;;;;;;;;;;;;;;5072844;28;19934;-78
2023/03/20 14:22:54;;;;;;;;;;;;;;;;;;5069352;28;19925;-77
2023/03/20 14:25:20;;;;;;;;;;;;;;;;;;5068295;28;20015;-78
2023/03/20 14:27:46;;;;;;;;;;;;;;;;;;5058018;28;20014;-77
2023/03/20 14:30:12;;;;;;;;;;;;;;;;;;5073762;28;19930;-76
2023/03/20 14:32:38;;;;;;;;;;;;;;;;;;5061146;28;19982;-77
2023/03/20 14:35:04;;;;;;;;;;;;;;;;;;5070040;28;20393;-77
2023/03/20 14:37:30;;;;;;;;;;;;;;;;;;5071781;28;20010;-77
2023/03/20 14:39:56;;;;;;;;;;;;;;;;;;5053410;28;19931;-78
2023/03/20 14:42:22;;;;;;;;;;;;;;;;;;5073594;28;19924;-78
2023/03/20 14:44:48;;;;;;;;;;;;;;;;;;5072212;28;19925;-78
2023/03/20 14:47:14;;;;;;;;;;;;;;;;;;5072905;28;19924;-78
2023/03/20 14:49:40;;;;;;;;;;;;;;;;;;5068532;28;19929;-78
2023/03/20 14:52:06;;;;;;;;;;;;;;;;;;5064096;28;19928;-78
2023/03/20 14:54:32;;;;;;;;;;;;;;;;;;5052902;28;19929;-78
2023/03/20 14:56:58;;;;;;;;;;;;;;;;;;5054515;28;19936;-77
2023/03/20 14:59:24;;;;;;;;;;;;;;;;;;5069318;28;19924;-77
2023/03/20 15:01:50;;;;;;;;;;;;;;;;;;5054569;28;19932;-78
2023/03/20 15:04:16;;;;;;;;;;;;;;;;;;5054498;28;19925;-78
2023/03/20 15:06:42;;;;;;;;;;;;;;;;;;5072140;28;19928;-81
2023/03/20 15:09:08;;;;;;;;;;;;;;;;;;5065819;28;19925;-78
2023/03/20 15:11:34;;;;;;;;;;;;;;;;;;5054829;28;19928;-79
2023/03/20 15:14:00;;;;;;;;;;;;;;;;;;5071569;28;19928;-80
2023/03/20 15:16:25;;;;;;;;;;;;;;;;;;5072448;28;20429;-78
2023/03/20 15:18:51;;;;;;;;;;;;;;;;;;5071442;28;20426;-78
2023/03/20 15:21:17;;;;;;;;;;;;;;;;;;5072191;28;20058;-78
2023/03/20 15:23:43;;;;;;;;;;;;;;;;;;5070622;28;20270;-78
2023/03/20 15:26:09;;;;;;;;;;;;;;;;;;5070751;28;19928;-77
2023/03/20 15:28:36;;;;;;;;;;;;;;;;;;5070821;28;19951;-77
2023/03/20 15:31:02;;;;;;;;;;;;;;;;;;5070488;28;19981;-77
2023/03/20 15:33:28;;;;;;;;;;;;;;;;;;5067755;28;20011;-78
2023/03/20 15:35:54;;;;;;;;;;;;;;;;;;5051391;28;20016;-79
2023/03/20 15:38:20;;;;;;;;;;;;;;;;;;5050259;28;19924;-83
2023/03/20 15:40:46;;;;;;;;;;;;;;;;;;5065337;28;20278;-78
2023/03/20 15:43:12;;;;;;;;;;;;;;;;;;5070851;28;19928;-78
2023/03/20 15:45:38;;;;;;;;;;;;;;;;;;5053953;28;19935;-77
2023/03/20 15:48:04;;;;;;;;;;;;;;;;;;5070736;28;19931;-77
2023/03/20 15:50:31;;;;;;;;;;;;;;;;;;5070428;28;20070;-80
2023/03/20 15:52:56;;;;;;;;;;;;;;;;;;5065994;28;19932;-79
2023/03/20 15:55:22;;;;;;;;;;;;;;;;;;5065723;28;19929;-78
2023/03/20 15:57:49;;;;;;;;;;;;;;;;;;5052203;28;19928;-81
2023/03/20 16:00:15;;;;;;;;;;;;;;;;;;5061443;28;19995;-76
2023/03/20 16:02:41;;;;;;;;;;;;;;;;;;5070715;28;19943;-77
2023/03/20 16:05:07;;;;;;;;;;;;;;;;;;5070479;28;20365;-77
2023/03/20 16:07:33;;;;;;;;;;;;;;;;;;5070044;28;19932;-77
2023/03/20 16:09:59;;;;;;;;;;;;;;;;;;5067309;28;20037;-77
2023/03/20 16:12:28;;;;;;;;;;;;;;;;;;5070592;28;19924;-79
2023/03/20 16:14:54;;;;;;;;;;;;;;;;;;5061561;28;19932;-78
2023/03/20 16:17:20;;;;;;;;;;;;;;;;;;5033263;28;20362;-79
2023/03/20 16:19:46;;;;;;;;;;;;;;;;;;5050894;28;19978;-79
2023/03/20 16:22:12;;;;;;;;;;;;;;;;;;5053128;28;19924;-78
2023/03/20 16:24:38;;;;;;;;;;;;;;;;;;5068873;28;20428;-79
2023/03/20 16:27:04;;;;;;;;;;;;;;;;;;5069416;28;19987;-76
2023/03/20 16:29:30;;;;;;;;;;;;;;;;;;5073728;28;19970;-78
2023/03/20 16:31:56;;;;;;;;;;;;;;;;;;5074170;28;19924;-77
2023/03/20 16:34:22;;;;;;;;;;;;;;;;;;5055916;28;20016;-77
2023/03/20 16:36:48;;;;;;;;;;;;;;;;;;5073588;28;20381;-76